createdAt,value
2019-05-19T00:00:02.247Z,20.47
2019-05-19T00:05:07.582Z,23.77
2019-05-19T00:10:09.934Z,20.97
2019-05-19T00:15:12.044Z,22.07
2019-05-19T00:20:14.327Z,22.50
2019-05-19T00:25:17.547Z,24.23
2019-05-19T00:30:20.577Z,20.87
2019-05-19T00:35:22.570Z,21.00
2019-05-19T00:40:24.492Z,22.30
2019-05-19T00:47:42.733Z,18.40
2019-05-19T00:52:44.905Z,22.00
2019-05-19T00:57:47.851Z,21.30
2019-05-19T01:02:49.885Z,23.90
2019-05-19T01:07:51.867Z,23.77
2019-05-19T01:12:53.871Z,20.13
2019-05-19T01:17:55.928Z,21.57
2019-05-19T01:22:57.973Z,28.17
2019-05-19T01:27:59.898Z,22.93
2019-05-19T01:33:03.348Z,22.00
2019-05-19T01:38:06.477Z,21.77
2019-05-19T01:43:08.404Z,22.93
2019-05-19T01:48:11.073Z,20.47
2019-05-19T01:53:13.206Z,20.67
2019-05-19T01:58:15.121Z,22.97
2019-05-19T02:03:17.183Z,23.70
2019-05-19T02:08:19.282Z,22.63
2019-05-19T02:13:21.388Z,24.57
2019-05-19T02:18:23.762Z,24.47
2019-05-19T02:23:25.876Z,24.03
2019-05-19T02:28:27.790Z,25.73
2019-05-19T02:33:29.797Z,24.73
2019-05-19T02:38:32.819Z,23.63
2019-05-19T02:43:36.333Z,26.93
2019-05-19T02:48:39.370Z,23.60
2019-05-19T02:53:43.054Z,25.70
2019-05-19T02:58:45.992Z,26.63
2019-05-19T03:03:48.010Z,26.77
2019-05-19T03:08:49.927Z,30.00
2019-05-19T03:13:51.970Z,28.40
2019-05-19T03:18:53.914Z,25.33
2019-05-19T03:23:55.843Z,29.63
2019-05-19T03:28:57.870Z,28.40
2019-05-19T03:33:59.842Z,24.03
2019-05-19T03:39:01.917Z,30.40
2019-05-19T03:44:05.250Z,28.80
2019-05-19T03:49:07.186Z,28.40
2019-05-19T03:54:09.233Z,27.00
2019-05-19T03:59:11.201Z,28.20
2019-05-19T04:04:13.137Z,27.67
2019-05-19T04:09:17.278Z,30.67
2019-05-19T04:14:18.966Z,29.00
2019-05-19T04:19:22.127Z,31.97
2019-05-19T04:24:24.078Z,30.00
2019-05-19T04:29:26.036Z,30.03
2019-05-19T04:34:28.000Z,29.70
2019-05-19T04:39:29.940Z,27.63
2019-05-19T04:44:32.156Z,33.30
2019-05-19T04:49:34.239Z,28.20
2019-05-19T04:54:36.290Z,31.63
2019-05-19T04:59:38.262Z,31.00
2019-05-19T05:04:42.276Z,30.43
2019-05-19T05:09:45.328Z,26.63
2019-05-19T05:14:47.242Z,28.47
2019-05-19T05:19:49.336Z,26.37
2019-05-19T05:24:51.466Z,28.40
2019-05-19T05:29:53.409Z,24.23
2019-05-19T05:34:55.363Z,26.50
2019-05-19T05:39:57.431Z,25.07
2019-05-19T05:44:59.534Z,26.30
2019-05-19T05:50:01.594Z,22.80
2019-05-19T05:55:03.815Z,26.17
2019-05-19T06:00:06.900Z,26.63
2019-05-19T06:05:09.327Z,30.37
2019-05-19T06:10:11.650Z,26.37
2019-05-19T06:15:13.691Z,30.63
2019-05-19T06:20:15.872Z,27.17
2019-05-19T06:25:18.134Z,29.13
2019-05-19T06:30:20.242Z,28.13
2019-05-19T06:35:22.459Z,28.97
2019-05-19T06:40:24.414Z,28.97
2019-05-19T06:45:26.386Z,29.73
2019-05-19T06:50:29.512Z,26.97
2019-05-19T06:55:31.637Z,26.43
2019-05-19T07:00:33.764Z,26.73
2019-05-19T07:05:35.828Z,25.37
2019-05-19T07:10:37.915Z,29.03
2019-05-19T07:15:41.228Z,26.80
2019-05-19T07:20:43.211Z,25.53
2019-05-19T07:25:45.265Z,24.77
2019-05-19T07:30:47.329Z,21.70
2019-05-19T07:35:49.665Z,26.10
2019-05-19T07:40:52.352Z,22.70
2019-05-19T07:45:54.351Z,23.63
2019-05-19T07:50:56.530Z,22.80
2019-05-19T07:55:58.592Z,22.17
2019-05-19T08:01:00.583Z,24.47
2019-05-19T08:06:03.115Z,20.30
2019-05-19T08:11:05.343Z,21.63
2019-05-19T08:16:07.697Z,22.63
2019-05-19T08:21:09.669Z,23.57
2019-05-19T08:26:11.765Z,22.67
2019-05-19T08:31:13.814Z,21.27
2019-05-19T08:36:15.751Z,19.90
2019-05-19T08:41:17.954Z,19.70
2019-05-19T08:46:19.921Z,18.17
2019-05-19T08:51:23.201Z,18.87
2019-05-19T08:56:25.270Z,18.97
2019-05-19T09:01:27.254Z,20.73
2019-05-19T09:06:29.322Z,17.93
2019-05-19T09:11:31.451Z,20.30
2019-05-19T09:16:33.431Z,19.90
2019-05-19T09:21:35.415Z,16.73
2019-05-19T09:26:37.496Z,18.50
2019-05-19T09:31:41.484Z,19.10
2019-05-19T09:36:43.656Z,19.20
2019-05-19T09:41:45.636Z,20.30
2019-05-19T09:46:47.782Z,15.50
2019-05-19T09:51:49.815Z,18.50
2019-05-19T09:56:51.865Z,19.93
2019-05-19T10:01:54.039Z,16.70
2019-05-19T10:06:56.188Z,14.03
2019-05-19T10:12:03.350Z,13.10
2019-05-19T10:17:05.602Z,15.77
2019-05-19T10:22:07.748Z,15.93
2019-05-19T10:27:09.791Z,13.63
2019-05-19T10:32:11.941Z,12.63
2019-05-19T10:37:13.975Z,13.57
2019-05-19T10:42:16.117Z,13.67
2019-05-19T10:47:18.000Z,12.40
2019-05-19T10:52:20.026Z,10.27
2019-05-19T10:57:22.075Z,10.60
2019-05-19T11:02:24.000Z,13.00
2019-05-19T11:07:25.980Z,11.67
2019-05-19T11:12:28.473Z,10.33
2019-05-19T11:17:30.671Z,9.73
2019-05-19T11:22:32.700Z,10.57
2019-05-19T11:27:34.736Z,9.37
2019-05-19T11:32:36.907Z,8.33
2019-05-19T11:37:38.823Z,9.53
2019-05-19T11:42:40.890Z,14.17
2019-05-19T11:47:42.824Z,10.40
2019-05-19T11:52:44.860Z,8.03
2019-05-19T11:57:47.099Z,8.70
2019-05-19T12:02:49.065Z,9.60
2019-05-19T12:07:51.177Z,11.87
2019-05-19T12:12:53.227Z,9.63
2019-05-19T12:17:55.277Z,13.90
2019-05-19T12:22:57.454Z,8.93
2019-05-19T12:27:59.533Z,8.47
2019-05-19T12:33:01.661Z,9.77
2019-05-19T12:38:03.686Z,9.83
2019-05-19T12:43:05.742Z,7.17
2019-05-19T12:48:07.833Z,8.20
2019-05-19T12:53:10.893Z,10.07
2019-05-19T12:58:12.974Z,6.17
2019-05-19T13:03:14.939Z,8.23
2019-05-19T13:08:18.155Z,9.93
2019-05-19T13:13:20.233Z,6.97
2019-05-19T13:18:22.280Z,12.03
2019-05-19T13:23:24.352Z,7.67
2019-05-19T13:28:26.300Z,6.83
2019-05-19T13:33:28.250Z,8.67
2019-05-19T13:38:30.223Z,7.00
2019-05-19T13:43:32.234Z,6.63
2019-05-19T13:48:34.179Z,6.87
2019-05-19T13:53:36.263Z,9.80
2019-05-19T13:58:38.370Z,6.13
2019-05-19T14:03:40.410Z,6.33
2019-05-19T14:08:42.367Z,6.50
2019-05-19T14:13:44.347Z,6.60
2019-05-19T14:18:46.379Z,6.33
2019-05-19T14:23:48.454Z,6.73
2019-05-19T14:28:50.516Z,6.40
2019-05-19T14:33:52.461Z,6.17
2019-05-19T14:39:05.039Z,5.90
2019-05-19T14:44:06.160Z,6.30
2019-05-19T14:49:08.138Z,6.57
2019-05-19T14:54:10.173Z,5.73
2019-05-19T14:59:12.219Z,6.37
2019-05-19T15:04:15.272Z,6.30
2019-05-19T15:09:17.323Z,6.33
2019-05-19T15:14:19.372Z,6.07
2019-05-19T15:19:21.319Z,6.50
2019-05-19T15:24:23.282Z,6.93
2019-05-19T15:29:25.364Z,5.83
2019-05-19T15:34:27.420Z,5.57
2019-05-19T15:39:29.482Z,5.53
2019-05-19T15:44:32.037Z,5.93
2019-05-19T15:49:34.007Z,5.87
2019-05-19T15:54:36.139Z,7.00
2019-05-19T15:59:38.460Z,5.23
2019-05-19T16:04:40.594Z,5.80
2019-05-19T16:09:42.627Z,5.53
2019-05-19T16:14:44.701Z,6.70
2019-05-19T16:19:46.729Z,7.70
2019-05-19T16:24:48.746Z,6.83
2019-05-19T16:29:50.804Z,5.17
2019-05-19T16:34:52.780Z,5.50
2019-05-19T16:39:54.738Z,5.33
2019-05-19T16:44:57.252Z,5.20
2019-05-19T16:49:59.828Z,5.80
2019-05-19T16:55:21.876Z,4.83
2019-05-19T17:00:24.889Z,6.27
2019-05-19T17:05:27.020Z,5.40
2019-05-19T17:10:28.980Z,5.37
2019-05-19T17:15:31.417Z,5.00
2019-05-19T17:20:33.570Z,5.50
2019-05-19T17:25:35.513Z,6.27
2019-05-19T17:30:37.536Z,5.70
2019-05-19T17:35:39.513Z,6.10
2019-05-19T17:40:41.733Z,6.70
2019-05-19T17:45:43.823Z,5.50
2019-05-19T17:50:45.987Z,6.77
2019-05-19T17:55:48.525Z,5.60
2019-05-19T18:00:50.589Z,7.30
2019-05-19T18:05:52.602Z,5.70
2019-05-19T18:10:54.590Z,7.33
2019-05-19T18:15:56.655Z,8.00
2019-05-19T18:20:58.608Z,8.40
2019-05-19T18:26:01.534Z,7.20
2019-05-19T18:31:04.644Z,10.47
2019-05-19T18:36:06.666Z,8.50
2019-05-19T18:41:08.611Z,5.87
2019-05-19T18:46:10.804Z,7.73
2019-05-19T18:51:12.728Z,5.37
2019-05-19T18:56:14.816Z,5.73
2019-05-19T19:01:16.937Z,6.67
2019-05-19T19:06:19.526Z,5.33
2019-05-19T19:11:21.490Z,5.37
2019-05-19T19:16:25.331Z,5.17
2019-05-19T19:21:28.648Z,5.47
2019-05-19T19:26:30.706Z,5.67
2019-05-19T19:31:47.360Z,8.67
2019-05-19T19:36:36.768Z,6.27
2019-05-19T19:41:38.819Z,9.00
2019-05-19T19:46:40.837Z,6.03
2019-05-19T19:51:42.836Z,5.87
2019-05-19T19:56:44.805Z,6.93
2019-05-19T20:01:46.925Z,8.13
2019-05-19T20:06:49.059Z,6.97
2019-05-19T20:11:52.358Z,7.07
2019-05-19T20:16:54.453Z,9.40
2019-05-19T20:21:57.289Z,6.00
2019-05-19T20:26:59.491Z,6.23
2019-05-19T20:32:03.064Z,7.03
2019-05-19T20:37:05.108Z,6.60
2019-05-19T20:42:07.201Z,6.33
2019-05-19T20:47:09.354Z,9.07
2019-05-19T20:52:12.551Z,10.20
2019-05-19T20:57:14.791Z,7.77
2019-05-19T21:02:16.855Z,10.87
2019-05-19T21:07:19.010Z,10.80
2019-05-19T21:12:21.007Z,11.33
2019-05-19T21:17:23.093Z,10.50
2019-05-19T21:22:26.200Z,9.43
2019-05-19T21:27:28.348Z,11.53
2019-05-19T21:32:31.630Z,9.53
2019-05-19T21:37:33.733Z,10.57
2019-05-19T21:42:36.023Z,9.67
2019-05-19T21:47:38.075Z,12.20
2019-05-19T21:52:40.079Z,10.33
2019-05-19T21:57:42.223Z,12.20
2019-05-19T22:02:44.422Z,11.33
2019-05-19T22:07:58.418Z,14.27
2019-05-19T22:13:01.723Z,14.07
2019-05-19T22:18:03.934Z,14.10
2019-05-19T22:23:05.997Z,12.53
2019-05-19T22:28:08.258Z,13.27
2019-05-19T22:33:10.236Z,14.47
2019-05-19T22:38:12.313Z,14.77
2019-05-19T22:43:14.423Z,16.70
2019-05-19T22:48:17.201Z,16.13
2019-05-19T22:53:19.320Z,12.20
2019-05-19T22:58:21.645Z,13.00
2019-05-19T23:03:24.779Z,13.30
2019-05-19T23:08:27.149Z,15.97
2019-05-19T23:13:30.044Z,13.30
2019-05-19T23:18:32.385Z,17.17
2019-05-19T23:23:34.568Z,14.87
2019-05-19T23:28:36.600Z,13.17
2019-05-19T23:33:38.605Z,13.07
2019-05-19T23:38:40.583Z,15.40
2019-05-19T23:43:42.699Z,16.33
2019-05-19T23:48:46.000Z,18.23
2019-05-19T23:53:48.191Z,16.90
2019-05-19T23:58:50.532Z,17.13
